Fort Worth, TX

12:03 PM CDT on September 05, 2015 (GMT -0500)
HADS | | Change Station
CLOSE
Current Station
Personal Weather Station
Location: Fort Worth, TX
Elevation: 520 ft
Nearby Weather Stations

Elev 520 ft 32.76 °N, 97.33 °W | Updated 48 minutes ago

Clear
Clear
88 °F
Feels Like 93 °F
N
6
Wind Variable Wind from SE
Gusts 0.0 mph

Today
High -- | Low -- °F
--% Chance of Precip.
Yesterday
High -- | Low -- °F
Precip. -- in
7:06 AM 7:49 PM
Waning Gibbous, 47% visible
Pressure 29.98 in
Visibility 10.0 miles
Clouds Scattered Clouds 3600 ft
Heat Index 93 °F
Dew Point 69 °F
Humidity 55%
Rainfall in
Snow Depth Not available.
UV 7 out of 12
Pollen 10.30 out of 12
Air Quality Not available.
Flu Activity Not available.
METAR KFTW 051653Z VRB03G15KT 10SM SCT036 33/22 A3001 RMK AO2 SLP152 T03280217
Pressure 29.98 in
Visibility 10.0 miles
Clouds Scattered Clouds 3600 ft
Heat Index 93 °F
Dew Point 69 °F
Humidity 55%
Rainfall in
Snow Depth Not available.
UV 7 out of 12
Pollen 10.30 out of 12
Air Quality Not available.
Flu Activity Not available.
METAR KFTW 051653Z VRB03G15KT 10SM SCT036 33/22 A3001 RMK AO2 SLP152 T03280217
Nowcast | as of 11:57 am CDT on September 5, 2015

Isolated showers will continue over the next few hours mainly for areas along and southeast of a Killeen to Waco to Canton line. A few rumbles of thunder will also be possible. The main hazards with thunderstorms...should they develop...will be gusty winds and occasional cloud to ground lightning. Rain amounts should remain light with totals generally under one quarter of an inch. Otherwise...hot conditions will continue over the next several hours with temperatures in the low to mid 90s.

×

10-Day Weather Forecast

×

Almanac

Astronomy

Sep. 05, 2015 Rise Set
Actual Time
Civil Twilight
Nautical Twilight
Astronomical Twilight
Moon
Length of Visible Light
Length of Day
Tomorrow will be .
, % of the Moon is Illuminated

Today's Extremes

State Highs State Lows

Community

WunderPhotos

Upload Photos

1,852,503 photos uploaded!

WunderBlogs® & News

Nearby

Air Quality

  Air Quality AQ Index Pollutant
Not available.

Snow Depth

Station Depth Elevation

Earthquake Activity

City Distance Mag. Time & Date
Minimum magnitude displayed is 2.5.

Coastal Water Temperatures

Place Temperature

Stations

Nearby Weather Stations

Station Location Temp. Windchill Dew Point Humidity Wind Precip. Elev Updated Type